createdAt,value
2023-04-12T00:01:55.902Z,5.13
2023-04-12T00:04:27.321Z,5.30
2023-04-12T00:06:56.378Z,4.72
2023-04-12T00:09:23.610Z,4.75
2023-04-12T00:11:57.847Z,3.92
2023-04-12T00:14:51.760Z,4.20
2023-04-12T00:17:21.486Z,4.30
2023-04-12T00:19:55.930Z,3.80
2023-04-12T00:23:33.887Z,3.88
2023-04-12T00:26:00.959Z,4.10
2023-04-12T00:28:28.263Z,4.15
2023-04-12T00:30:55.986Z,3.78
2023-04-12T00:33:23.123Z,4.72
2023-04-12T00:35:50.093Z,4.32
2023-04-12T00:38:17.379Z,4.15
2023-04-12T00:40:45.169Z,4.20
2023-04-12T00:43:15.669Z,4.10
2023-04-12T00:45:46.051Z,3.83
2023-04-12T00:48:16.668Z,4.45
2023-04-12T00:50:47.562Z,4.60
2023-04-12T00:53:15.898Z,5.15
2023-04-12T00:55:46.636Z,4.72
2023-04-12T00:58:14.974Z,4.75
2023-04-12T01:00:50.308Z,4.90
2023-04-12T01:03:23.483Z,4.65
2023-04-12T01:06:14.044Z,4.50
2023-04-12T01:09:05.717Z,4.70
2023-04-12T01:12:02.820Z,4.00
2023-04-12T01:14:43.179Z,3.97
2023-04-12T01:17:17.400Z,4.35
2023-04-12T01:20:17.189Z,4.57
2023-04-12T01:23:15.748Z,4.97
2023-04-12T01:25:48.684Z,4.50
2023-04-12T01:28:23.182Z,4.72
2023-04-12T01:30:52.029Z,4.95
2023-04-12T01:33:24.363Z,5.07
2023-04-12T01:35:53.933Z,4.90
2023-04-12T01:38:21.874Z,4.82
2023-04-12T01:40:49.322Z,5.18
2023-04-12T01:43:18.851Z,5.07
2023-04-12T01:45:46.156Z,5.50
2023-04-12T01:48:13.777Z,5.43
2023-04-12T01:51:07.275Z,5.15
2023-04-12T01:54:03.978Z,5.30
2023-04-12T01:56:46.783Z,4.78
2023-04-12T01:59:17.429Z,5.20
2023-04-12T02:01:47.048Z,4.93
2023-04-12T02:04:17.352Z,5.45
2023-04-12T02:06:46.805Z,5.55
2023-04-12T02:09:13.884Z,5.80
2023-04-12T02:11:41.250Z,5.25
2023-04-12T02:14:10.548Z,5.80
2023-04-12T02:16:37.763Z,5.95
2023-04-12T02:19:08.333Z,5.45
2023-04-12T02:21:46.285Z,6.15
2023-04-12T02:24:13.650Z,6.10
2023-04-12T02:26:40.680Z,5.55
2023-04-12T02:29:13.914Z,6.07
2023-04-12T02:31:41.641Z,5.57
2023-04-12T02:34:13.422Z,8.07
2023-04-12T02:36:50.565Z,6.30
2023-04-12T02:39:22.336Z,5.63
2023-04-12T02:41:52.112Z,5.63
2023-04-12T02:44:20.125Z,5.93
2023-04-12T02:47:00.826Z,6.43
2023-04-12T02:49:28.453Z,6.20
2023-04-12T02:51:56.364Z,5.95
2023-04-12T02:54:29.804Z,5.55
2023-04-12T02:56:57.261Z,5.90
2023-04-12T02:59:34.687Z,5.43
2023-04-12T03:02:15.937Z,5.97
2023-04-12T03:04:46.909Z,5.78
2023-04-12T03:07:19.791Z,6.30
2023-04-12T03:09:53.786Z,6.07
2023-04-12T03:12:26.539Z,6.45
2023-04-12T03:15:23.771Z,5.30
2023-04-12T03:17:53.681Z,5.32
2023-04-12T03:20:28.912Z,5.63
2023-04-12T03:23:01.788Z,5.35
2023-04-12T03:25:31.264Z,5.80
2023-04-12T03:28:06.903Z,5.00
2023-04-12T03:30:51.000Z,5.60
2023-04-12T03:33:24.751Z,4.85
2023-04-12T03:35:56.320Z,5.45
2023-04-12T03:38:23.633Z,5.07
2023-04-12T03:40:51.100Z,5.05
2023-04-12T03:43:23.461Z,5.53
2023-04-12T03:45:51.868Z,4.97
2023-04-12T03:48:19.111Z,5.47
2023-04-12T03:50:46.535Z,5.72
2023-04-12T03:53:22.196Z,5.18
2023-04-12T03:55:54.119Z,5.20
2023-04-12T03:58:22.238Z,5.95
2023-04-12T04:00:49.837Z,5.05
2023-04-12T04:03:19.644Z,5.40
2023-04-12T04:05:58.398Z,5.65
2023-04-12T04:08:26.294Z,5.32
2023-04-12T04:10:55.074Z,4.97
2023-04-12T04:13:27.475Z,5.00
2023-04-12T04:16:11.049Z,5.70
2023-04-12T04:18:40.769Z,5.05
2023-04-12T04:21:10.575Z,4.90
2023-04-12T04:23:44.837Z,5.07
2023-04-12T04:26:12.919Z,4.35
2023-04-12T04:29:03.605Z,4.45
2023-04-12T04:31:36.606Z,5.15
2023-04-12T04:34:07.224Z,4.88
2023-04-12T04:36:41.864Z,4.90
2023-04-12T04:39:10.371Z,4.43
2023-04-12T04:41:40.345Z,4.35
2023-04-12T04:44:13.490Z,4.75
2023-04-12T04:46:52.134Z,4.28
2023-04-12T04:49:19.633Z,3.92
2023-04-12T04:51:50.403Z,4.25
2023-04-12T04:54:18.749Z,4.00
2023-04-12T04:56:46.079Z,4.43
2023-04-12T04:59:17.862Z,4.25
2023-04-12T05:01:48.146Z,3.72
2023-04-12T05:04:17.313Z,4.15
2023-04-12T05:06:46.822Z,3.70
2023-04-12T05:09:17.966Z,3.93
2023-04-12T05:11:51.809Z,4.13
2023-04-12T05:14:23.306Z,3.65
2023-04-12T05:16:51.135Z,3.53
2023-04-12T05:19:18.371Z,3.65
2023-04-12T05:21:45.548Z,3.30
2023-04-12T05:24:13.021Z,3.05
2023-04-12T05:26:42.715Z,3.83
2023-04-12T05:29:14.342Z,2.67
2023-04-12T05:31:42.587Z,3.90
2023-04-12T05:34:16.904Z,3.58
2023-04-12T05:36:52.032Z,3.35
2023-04-12T05:39:20.710Z,3.60
2023-04-12T05:41:49.143Z,3.75
2023-04-12T05:44:16.286Z,3.35
2023-04-12T05:46:43.437Z,3.30
2023-04-12T05:49:10.881Z,3.10
2023-04-12T05:51:41.809Z,3.92
2023-04-12T05:54:20.975Z,4.13
2023-04-12T05:56:50.908Z,3.15
2023-04-12T05:59:19.692Z,3.95
2023-04-12T06:01:47.721Z,3.67
2023-04-12T06:04:17.655Z,3.05
2023-04-12T06:06:44.846Z,3.53
2023-04-12T06:09:12.401Z,3.10
2023-04-12T06:11:40.249Z,3.40
2023-04-12T06:14:10.533Z,3.03
2023-04-12T06:16:40.681Z,3.10
2023-04-12T06:19:11.953Z,3.50
2023-04-12T06:21:39.191Z,3.70
2023-04-12T06:24:09.701Z,3.70
2023-04-12T06:26:41.315Z,3.65
2023-04-12T06:29:28.715Z,3.50
2023-04-12T06:32:49.866Z,3.40
2023-04-12T06:35:19.969Z,3.72
2023-04-12T06:37:47.704Z,4.20
2023-04-12T06:40:21.022Z,3.55
2023-04-12T06:42:48.446Z,3.80
2023-04-12T06:45:22.190Z,3.95
2023-04-12T06:47:49.452Z,3.92
2023-04-12T06:50:18.509Z,5.22
2023-04-12T06:52:45.664Z,4.18
2023-04-12T06:55:13.970Z,4.05
2023-04-12T06:57:44.873Z,4.90
2023-04-12T07:00:13.004Z,4.82
2023-04-12T07:02:40.590Z,5.10
2023-04-12T07:05:08.354Z,4.72
2023-04-12T07:07:35.725Z,5.32
2023-04-12T07:10:04.687Z,5.05
2023-04-12T07:12:31.901Z,5.88
2023-04-12T07:15:24.695Z,5.50
2023-04-12T07:17:51.955Z,4.95
2023-04-12T07:20:19.191Z,7.10
2023-04-12T07:22:46.500Z,5.55
2023-04-12T07:25:13.648Z,5.60
2023-04-12T07:27:41.305Z,5.32
2023-04-12T07:30:13.324Z,4.82
2023-04-12T07:32:43.233Z,5.77
2023-04-12T07:35:11.116Z,5.78
2023-04-12T07:37:38.477Z,5.53
2023-04-12T07:40:06.942Z,5.68
2023-04-12T07:42:37.267Z,5.68
2023-04-12T07:45:04.828Z,5.75
2023-04-12T07:47:33.185Z,5.47
2023-04-12T07:50:00.557Z,5.95
2023-04-12T07:52:27.609Z,5.13
2023-04-12T07:54:55.222Z,5.38
2023-04-12T07:57:23.537Z,5.05
2023-04-12T07:59:50.938Z,4.97
2023-04-12T08:02:27.584Z,4.93
2023-04-12T08:05:00.374Z,4.75
2023-04-12T08:09:55.080Z,3.63
2023-04-12T08:12:29.354Z,3.58
2023-04-12T08:14:56.470Z,3.70
2023-04-12T08:17:24.298Z,2.70
2023-04-12T08:19:54.425Z,2.35
2023-04-12T08:22:21.580Z,1.85
2023-04-12T08:24:48.683Z,2.17
2023-04-12T08:27:16.540Z,2.00
2023-04-12T08:29:45.047Z,1.02
2023-04-12T08:32:12.860Z,1.20
2023-04-12T08:34:40.049Z,1.55
2023-04-12T08:37:10.187Z,1.20
2023-04-12T08:39:38.105Z,1.70
2023-04-12T08:42:06.334Z,1.60
2023-04-12T08:44:41.453Z,1.60
2023-04-12T08:47:11.275Z,1.42
2023-04-12T08:49:38.920Z,2.05
2023-04-12T08:52:08.445Z,2.28
2023-04-12T08:54:36.566Z,1.60
2023-04-12T08:57:09.464Z,1.70
2023-04-12T08:59:43.969Z,1.40
2023-04-12T09:02:14.655Z,1.60
2023-04-12T09:04:53.743Z,1.55
2023-04-12T09:07:29.034Z,1.50
2023-04-12T09:09:57.803Z,1.30
2023-04-12T09:12:25.715Z,1.80
2023-04-12T09:15:15.760Z,1.50
2023-04-12T09:17:45.794Z,1.42
2023-04-12T09:20:17.639Z,1.30
2023-04-12T09:22:46.885Z,1.58
2023-04-12T09:25:15.752Z,2.05
2023-04-12T09:27:58.975Z,1.40
2023-04-12T09:30:26.278Z,1.00
2023-04-12T09:32:55.792Z,1.48
2023-04-12T09:35:36.059Z,1.42
2023-04-12T09:38:11.991Z,1.42
2023-04-12T09:40:42.031Z,1.20
2023-04-12T09:43:09.656Z,1.50
2023-04-12T09:45:41.584Z,1.33
2023-04-12T09:48:22.478Z,1.30
2023-04-12T09:51:00.328Z,1.05
2023-04-12T09:53:28.116Z,0.80
2023-04-12T09:55:59.089Z,1.95
2023-04-12T09:58:42.205Z,1.20
2023-04-12T10:01:14.659Z,1.55
2023-04-12T10:03:43.115Z,1.40
2023-04-12T10:06:11.660Z,1.33
2023-04-12T10:08:39.531Z,1.10
2023-04-12T10:11:07.236Z,1.10
2023-04-12T10:13:37.503Z,1.25
2023-04-12T10:16:07.886Z,0.98
2023-04-12T10:18:39.508Z,1.10
2023-04-12T10:21:08.139Z,1.03
2023-04-12T10:23:35.505Z,1.50
2023-04-12T10:26:05.317Z,1.70
2023-04-12T10:28:34.979Z,1.48
2023-04-12T10:31:30.728Z,1.60
2023-04-12T10:34:02.463Z,0.80
2023-04-12T10:36:58.588Z,1.42
2023-04-12T10:39:42.469Z,1.20
2023-04-12T10:42:24.965Z,1.65
2023-04-12T10:47:57.131Z,2.08
2023-04-12T10:50:33.887Z,1.70
2023-04-12T10:53:18.225Z,1.70
2023-04-12T10:55:46.352Z,2.00
2023-04-12T10:58:49.718Z,1.67
2023-04-12T11:01:19.309Z,2.05
2023-04-12T11:04:21.992Z,1.90
2023-04-12T11:07:11.289Z,1.80
2023-04-12T11:10:16.436Z,2.70
2023-04-12T11:12:55.422Z,2.78
2023-04-12T11:15:29.173Z,2.25
2023-04-12T11:17:59.918Z,3.05
2023-04-12T11:20:28.133Z,2.78
2023-04-12T11:22:56.048Z,2.85
2023-04-12T11:25:26.190Z,3.08
2023-04-12T11:27:54.970Z,2.97
2023-04-12T11:30:25.561Z,2.33
2023-04-12T11:32:52.907Z,2.88
2023-04-12T11:35:24.390Z,2.72
2023-04-12T11:37:51.912Z,2.55
2023-04-12T11:40:22.949Z,3.25
2023-04-12T11:42:50.356Z,2.85
2023-04-12T11:45:22.759Z,2.60
2023-04-12T11:47:52.083Z,2.53
2023-04-12T11:50:31.382Z,2.83
2023-04-12T11:53:13.348Z,2.55
2023-04-12T11:55:41.041Z,3.20
2023-04-12T11:58:08.677Z,2.88
2023-04-12T12:00:36.503Z,2.28
2023-04-12T12:03:10.350Z,2.08
2023-04-12T12:05:41.025Z,2.50
2023-04-12T12:08:11.727Z,2.80
2023-04-12T12:10:52.452Z,2.78
2023-04-12T12:13:28.001Z,2.15
2023-04-12T12:15:57.971Z,2.10
2023-04-12T12:18:31.056Z,3.28
2023-04-12T12:20:58.336Z,2.83
2023-04-12T12:23:31.306Z,2.45
2023-04-12T12:26:17.142Z,2.75
2023-04-12T12:28:54.470Z,2.70
2023-04-12T12:31:25.055Z,2.67
2023-04-12T12:33:57.750Z,2.60
2023-04-12T12:36:32.780Z,2.45
2023-04-12T12:39:12.857Z,2.67
2023-04-12T12:41:41.431Z,2.72
2023-04-12T12:44:08.933Z,2.30
2023-04-12T12:49:12.078Z,2.13
2023-04-12T12:51:39.240Z,2.15
2023-04-12T12:54:06.989Z,1.98
2023-04-12T12:56:35.605Z,1.85
2023-04-12T12:59:02.891Z,1.65
2023-04-12T13:01:33.086Z,1.83
2023-04-12T13:04:10.094Z,1.73
2023-04-12T13:06:39.300Z,1.45
2023-04-12T13:09:06.590Z,1.73
2023-04-12T13:11:36.556Z,1.90
2023-04-12T13:14:04.485Z,1.52
2023-04-12T13:16:31.610Z,1.30
2023-04-12T13:18:59.076Z,1.60
2023-04-12T13:21:34.902Z,1.45
2023-04-12T13:24:02.021Z,1.35
2023-04-12T13:26:29.128Z,1.70
2023-04-12T13:28:57.186Z,1.30
2023-04-12T13:31:30.139Z,1.40
2023-04-12T13:33:57.407Z,1.38
2023-04-12T13:36:24.712Z,1.52
2023-04-12T13:38:51.987Z,1.70
2023-04-12T13:41:19.270Z,1.33
2023-04-12T13:43:46.399Z,1.10
2023-04-12T13:46:13.842Z,1.20
2023-04-12T13:48:41.650Z,1.67
2023-04-12T13:51:11.334Z,1.67
2023-04-12T13:53:38.484Z,1.95
2023-04-12T13:56:06.239Z,1.27
2023-04-12T13:58:33.309Z,1.40
2023-04-12T14:01:01.075Z,1.23
2023-04-12T14:03:28.219Z,1.17
2023-04-12T14:05:56.361Z,1.40
2023-04-12T14:08:23.923Z,1.30
2023-04-12T14:10:51.010Z,1.38
2023-04-12T14:13:18.160Z,1.50
2023-04-12T14:15:45.283Z,2.20
2023-04-12T14:18:12.666Z,0.80
2023-04-12T14:20:49.502Z,1.70
2023-04-12T14:23:17.759Z,1.60
2023-04-12T14:25:45.718Z,1.65
2023-04-12T14:28:16.946Z,2.08
2023-04-12T14:30:49.005Z,1.60
2023-04-12T14:33:17.375Z,0.82
2023-04-12T14:35:45.038Z,1.33
2023-04-12T14:38:12.717Z,1.63
2023-04-12T14:40:40.338Z,1.20
2023-04-12T14:43:07.806Z,1.25
2023-04-12T14:45:37.497Z,1.90
2023-04-12T14:48:04.986Z,1.80
2023-04-12T14:50:33.026Z,1.70
2023-04-12T14:53:00.115Z,2.00
2023-04-12T14:55:27.142Z,1.73
2023-04-12T14:57:54.313Z,1.83
2023-04-12T15:00:22.452Z,2.30
2023-04-12T15:02:54.293Z,2.63
2023-04-12T15:05:21.977Z,2.72
2023-04-12T15:07:50.103Z,3.17
2023-04-12T15:10:18.168Z,2.65
2023-04-12T15:12:45.164Z,2.72
2023-04-12T15:15:13.245Z,2.70
2023-04-12T15:17:40.793Z,3.33
2023-04-12T15:20:12.536Z,2.42
2023-04-12T15:22:40.298Z,3.27
2023-04-12T15:25:08.474Z,2.60
2023-04-12T15:27:35.705Z,2.85
2023-04-12T15:30:08.434Z,3.03
2023-04-12T15:32:41.418Z,2.78
2023-04-12T15:35:25.160Z,2.75
2023-04-12T15:37:55.071Z,2.80
2023-04-12T15:40:23.065Z,3.15
2023-04-12T15:42:50.402Z,3.70
2023-04-12T15:45:18.116Z,2.53
2023-04-12T15:47:46.164Z,3.60
2023-04-12T15:50:14.192Z,3.90
2023-04-12T15:52:43.100Z,3.13
2023-04-12T15:55:11.672Z,3.00
2023-04-12T15:57:39.193Z,2.78
2023-04-12T16:00:21.051Z,3.50
2023-04-12T16:02:59.069Z,3.03
2023-04-12T16:05:27.241Z,2.92
2023-04-12T16:07:54.852Z,2.40
2023-04-12T16:10:24.541Z,2.13
2023-04-12T16:12:53.997Z,2.00
2023-04-12T16:15:21.996Z,2.30
2023-04-12T16:17:52.483Z,2.65
2023-04-12T16:20:21.873Z,3.88
2023-04-12T16:22:56.745Z,3.55
2023-04-12T16:25:27.260Z,3.40
2023-04-12T16:27:55.605Z,2.80
2023-04-12T16:30:23.030Z,2.13
2023-04-12T16:32:51.323Z,2.10
2023-04-12T16:35:18.565Z,1.85
2023-04-12T16:37:47.050Z,2.10
2023-04-12T16:40:17.173Z,2.17
2023-04-12T16:42:45.045Z,2.55
2023-04-12T16:45:14.925Z,2.25
2023-04-12T16:47:42.672Z,1.60
2023-04-12T16:50:12.431Z,1.90
2023-04-12T16:52:41.117Z,3.40
2023-04-12T16:55:12.109Z,2.20
2023-04-12T16:57:41.613Z,2.50
2023-04-12T17:00:19.474Z,1.83
2023-04-12T17:02:50.306Z,2.47
2023-04-12T17:05:19.816Z,2.15
2023-04-12T17:07:50.328Z,2.05
2023-04-12T17:10:19.978Z,2.00
2023-04-12T17:12:50.417Z,1.95
2023-04-12T17:15:20.873Z,2.00
2023-04-12T17:17:52.560Z,1.90
2023-04-12T17:20:23.672Z,2.22
2023-04-12T17:22:52.149Z,2.13
2023-04-12T17:25:21.497Z,2.60
2023-04-12T17:27:52.876Z,1.67
2023-04-12T17:30:19.874Z,2.00
2023-04-12T17:32:48.313Z,2.38
2023-04-12T17:35:17.944Z,2.13
2023-04-12T17:37:45.970Z,2.28
2023-04-12T17:40:14.039Z,2.28
2023-04-12T17:42:43.034Z,2.00
2023-04-12T17:45:12.826Z,2.20
2023-04-12T17:47:43.904Z,2.30
2023-04-12T17:50:12.398Z,2.75
2023-04-12T17:52:39.544Z,2.40
2023-04-12T17:55:09.415Z,2.60
2023-04-12T17:57:36.838Z,2.40
2023-04-12T18:00:09.520Z,3.92
2023-04-12T18:02:43.845Z,2.53
2023-04-12T18:05:12.296Z,3.00
2023-04-12T18:07:40.252Z,2.72
2023-04-12T18:10:15.222Z,3.00
2023-04-12T18:12:45.265Z,3.28
2023-04-12T18:17:42.563Z,3.20
2023-04-12T18:20:14.059Z,2.67
2023-04-12T18:22:41.124Z,3.47
2023-04-12T18:25:14.989Z,3.00
2023-04-12T18:27:42.105Z,2.78
2023-04-12T18:30:09.482Z,2.63
2023-04-12T18:32:36.873Z,3.15
2023-04-12T18:35:06.089Z,2.72
2023-04-12T18:37:34.493Z,2.70
2023-04-12T18:40:01.624Z,2.55
2023-04-12T18:42:30.133Z,2.90
2023-04-12T18:44:58.386Z,3.30
2023-04-12T18:47:28.968Z,2.72
2023-04-12T18:49:56.541Z,3.58
2023-04-12T18:52:23.854Z,2.90
2023-04-12T18:54:51.404Z,3.05
2023-04-12T18:57:18.542Z,3.22
2023-04-12T18:59:47.919Z,3.10
2023-04-12T19:02:15.203Z,3.45
2023-04-12T19:04:42.512Z,4.05
2023-04-12T19:07:12.322Z,3.92
2023-04-12T19:09:43.557Z,3.90
2023-04-12T19:12:11.286Z,3.60
2023-04-12T19:14:39.386Z,4.07
2023-04-12T19:17:06.470Z,4.60
2023-04-12T19:19:33.550Z,4.15
2023-04-12T19:22:00.844Z,3.70
2023-04-12T19:24:28.013Z,4.30
2023-04-12T19:26:55.188Z,3.88
2023-04-12T19:29:22.834Z,3.97
2023-04-12T19:31:53.632Z,4.20
2023-04-12T19:34:20.893Z,4.10
2023-04-12T19:37:00.433Z,3.13
2023-04-12T19:39:32.437Z,3.72
2023-04-12T19:42:01.867Z,3.60
2023-04-12T19:44:29.326Z,3.10
2023-04-12T19:46:57.018Z,2.95
2023-04-12T19:49:24.839Z,3.42
2023-04-12T19:51:52.371Z,3.80
2023-04-12T19:54:23.605Z,3.50
2023-04-12T19:56:52.572Z,3.25
2023-04-12T19:59:20.951Z,3.40
2023-04-12T20:01:48.624Z,4.30
2023-04-12T20:04:21.682Z,3.20
2023-04-12T20:06:56.588Z,3.35
2023-04-12T20:09:23.951Z,3.60
2023-04-12T20:11:51.117Z,3.70
2023-04-12T20:14:18.894Z,3.90
2023-04-12T20:16:46.332Z,3.38
2023-04-12T20:19:13.948Z,3.97
2023-04-12T20:21:41.112Z,3.55
2023-04-12T20:24:08.951Z,3.78
2023-04-12T20:26:36.544Z,3.88
2023-04-12T20:29:08.297Z,3.58
2023-04-12T20:31:37.213Z,3.50
2023-04-12T20:34:04.233Z,3.90
2023-04-12T20:36:31.414Z,4.47
2023-04-12T20:38:58.704Z,3.92
2023-04-12T20:41:25.889Z,4.57
2023-04-12T20:43:53.165Z,4.13
2023-04-12T20:46:25.962Z,4.75
2023-04-12T20:48:56.813Z,5.70
2023-04-12T20:51:24.413Z,4.95
2023-04-12T20:53:51.767Z,4.88
2023-04-12T20:56:19.192Z,6.40
2023-04-12T20:58:47.606Z,6.97
2023-04-12T21:01:15.232Z,6.97
2023-04-12T21:03:43.504Z,6.70
2023-04-12T21:06:11.218Z,5.53
2023-04-12T21:08:39.125Z,6.70
2023-04-12T21:11:06.959Z,6.40
2023-04-12T21:13:34.613Z,5.43
2023-04-12T21:16:03.140Z,5.88
2023-04-12T21:18:34.349Z,5.65
2023-04-12T21:21:02.182Z,5.82
2023-04-12T21:23:29.297Z,5.05
2023-04-12T21:25:59.496Z,5.50
2023-04-12T21:28:29.689Z,4.75
2023-04-12T21:30:59.564Z,4.60
2023-04-12T21:33:27.924Z,4.47
2023-04-12T21:35:55.994Z,4.80
2023-04-12T21:38:26.479Z,5.20
2023-04-12T21:40:57.278Z,5.03
2023-04-12T21:43:27.370Z,4.97
2023-04-12T21:45:54.614Z,4.53
2023-04-12T21:48:24.335Z,4.57
2023-04-12T21:50:51.753Z,4.90
2023-04-12T21:53:18.774Z,5.68
2023-04-12T21:55:46.089Z,4.70
2023-04-12T21:58:13.275Z,4.93
2023-04-12T22:00:41.838Z,5.90
2023-04-12T22:03:17.064Z,5.55
2023-04-12T22:06:03.602Z,5.70
2023-04-12T22:08:33.299Z,5.18
2023-04-12T22:11:47.280Z,6.07
2023-04-12T22:14:47.306Z,5.63
2023-04-12T22:17:14.911Z,5.85
2023-04-12T22:19:44.064Z,6.18
2023-04-12T22:22:12.051Z,6.10
2023-04-12T22:24:40.552Z,6.88
2023-04-12T22:27:08.068Z,7.10
2023-04-12T22:29:35.462Z,6.50
2023-04-12T22:32:03.148Z,6.53
2023-04-12T22:34:30.306Z,7.32
2023-04-12T22:37:00.128Z,7.00
2023-04-12T22:39:27.392Z,7.20
2023-04-12T22:41:57.361Z,7.03
2023-04-12T22:44:26.397Z,5.95
2023-04-12T22:46:55.083Z,7.20
2023-04-12T22:49:30.717Z,6.38
2023-04-12T22:51:58.774Z,5.82
2023-04-12T22:54:26.207Z,4.90
2023-04-12T22:56:57.311Z,5.30
2023-04-12T22:59:24.634Z,4.70
2023-04-12T23:01:51.733Z,5.20
2023-04-12T23:04:19.235Z,5.13
2023-04-12T23:06:47.300Z,4.40
2023-04-12T23:09:15.776Z,3.88
2023-04-12T23:11:42.913Z,4.30
2023-04-12T23:14:10.453Z,3.47
2023-04-12T23:16:44.396Z,3.58
2023-04-12T23:19:14.925Z,3.70
2023-04-12T23:21:44.762Z,3.97
2023-04-12T23:24:15.281Z,3.95
2023-04-12T23:26:45.123Z,3.63
2023-04-12T23:29:12.952Z,3.30
2023-04-12T23:31:41.743Z,3.40
2023-04-12T23:34:08.936Z,2.97
2023-04-12T23:36:36.219Z,2.53
2023-04-12T23:39:08.576Z,2.28
2023-04-12T23:44:10.627Z,1.90
2023-04-12T23:46:38.757Z,2.00
2023-04-12T23:49:06.305Z,1.70
2023-04-12T23:51:33.517Z,1.80
2023-04-12T23:54:00.890Z,1.90
2023-04-12T23:56:29.196Z,1.90
2023-04-12T23:58:57.216Z,2.03
